Aérodrome :
LOGIN :

S'inscrire | Disclaimer

   EN    FR    IT 

 










Légende :    VFR   VFR Marginal   IFR   IFR Intensif   IFR Très Intensif
Visi : 
Plafond : 
>= 8 km
>= 3000ft
5 à 8 km
1000 à 3000 ft
1500m à 5 km
500 à 1000 ft
800 à 1500m
200 à 500 ft
< 800m
< 200 ft
Symboles :   Orages  Brouillard  Fortes neiges  Fortes précipitations  Vent > 20 kt
SIGMETs :   Divers  Orages  Givrage  Turbulence  Onde Orograph.  Cendres Volcan.






- Altitude de l'aérodrome : 1516 ft
- Code IATA : AGB


EDMA - Augsburg

DERNIER METAR :
  • 110520Z AUTO 12003KT 9999 // NCD M04/M05 Q1017

METARs EXPIRÉS :
  • 110450Z AUTO 12006KT 9999 // NCD M06/M07 Q1017
  • 110420Z AUTO 23003KT 190V250 9999 // NCD M05/M05 Q1018
  • 110350Z AUTO 17003KT 130V200 9999 // NCD M05/M06 Q1018
  • 110320Z AUTO 14004KT 9999 // NCD M04/M05 Q1018
  • 110250Z AUTO 14004KT 9999 // NCD M05/M05 Q1019

TAF TAF EDMA
Valide du 11 à 06h jusqu'au 11 à 15h UTC


110500Z 1106/1115 14004KT CAVOK
BECMG 1107/1109 24005KT



MET'MAP, la Météo Aéronautique d'un coup d'oeil ! - Copyright ORBIFLY Décembre 2007 - Disclaimer

ORBIFLY MET'MAP TEAM :

Programmation & Développement : Alexandra Zaïnal
Sur une idée originale de : Baudouin d'Aumeries
Assistance à la programmation : Marc-Olivier Méhu
Soutien technique & logistique : Manuel Goepfert

Contact : metmap@orbifly.com




SOURCES & CREDITS :

   NOAA